createdAt,value
2023-05-11T00:02:05.924Z,93857.56
2023-05-11T00:04:32.983Z,93848.75
2023-05-11T00:07:00.021Z,93850.06
2023-05-11T00:09:27.030Z,93855.34
2023-05-11T00:11:53.987Z,93861.00
2023-05-11T00:14:22.291Z,93862.75
2023-05-11T00:16:49.353Z,93863.41
2023-05-11T00:19:16.507Z,93857.63
2023-05-11T00:21:43.410Z,93865.06
2023-05-11T00:24:10.518Z,93857.00
2023-05-11T00:26:37.478Z,93860.03
2023-05-11T00:29:04.404Z,93857.09
2023-05-11T00:31:32.774Z,93856.28
2023-05-11T00:33:59.748Z,93855.19
2023-05-11T00:36:26.690Z,93870.66
2023-05-11T00:38:53.710Z,93876.47
2023-05-11T00:41:21.704Z,93870.34
2023-05-11T00:43:48.716Z,93855.09
2023-05-11T00:46:15.725Z,93865.50
2023-05-11T00:48:44.392Z,93869.16
2023-05-11T00:51:12.342Z,93872.66
2023-05-11T00:53:39.390Z,93865.50
2023-05-11T00:56:06.896Z,93866.53
2023-05-11T00:58:33.796Z,93872.47
2023-05-11T01:01:00.868Z,93876.09
2023-05-11T01:03:27.935Z,93867.19
2023-05-11T01:06:03.067Z,93872.75
2023-05-11T01:08:33.772Z,93875.84
2023-05-11T01:11:07.717Z,93872.31
2023-05-11T01:13:39.191Z,93870.41
2023-05-11T01:16:12.304Z,93864.63
2023-05-11T01:18:52.255Z,93872.47
2023-05-11T01:21:21.653Z,93868.00
2023-05-11T01:24:05.194Z,93874.06
2023-05-11T01:26:48.331Z,93865.22
2023-05-11T01:29:41.694Z,93863.16
2023-05-11T01:32:15.973Z,93882.56
2023-05-11T01:34:44.101Z,93865.22
2023-05-11T01:37:15.671Z,93868.72
2023-05-11T01:39:49.750Z,93865.50
2023-05-11T01:42:19.442Z,93866.59
2023-05-11T01:44:48.976Z,93864.59
2023-05-11T01:47:17.769Z,93862.56
2023-05-11T01:49:45.946Z,93866.88
2023-05-11T01:52:14.166Z,93859.47
2023-05-11T01:54:43.616Z,93859.19
2023-05-11T01:57:12.609Z,93857.72
2023-05-11T01:59:40.767Z,93866.88
2023-05-11T02:02:08.675Z,93868.22
2023-05-11T02:04:37.766Z,93859.41
2023-05-11T02:07:05.200Z,93846.91
2023-05-11T02:09:33.846Z,93860.53
2023-05-11T02:12:02.159Z,93848.34
2023-05-11T02:14:34.290Z,93850.28
2023-05-11T02:17:02.686Z,93854.16
2023-05-11T02:19:30.315Z,93852.25
2023-05-11T02:21:59.509Z,93851.97
2023-05-11T02:24:28.744Z,93846.53
2023-05-11T02:26:55.916Z,93848.97
2023-05-11T02:29:23.612Z,93844.94
2023-05-11T02:31:53.188Z,93842.22
2023-05-11T02:34:24.598Z,93844.22
2023-05-11T02:36:54.480Z,93842.59
2023-05-11T02:39:24.573Z,93843.78
2023-05-11T02:41:57.410Z,93842.97
2023-05-11T02:44:29.000Z,93844.72
2023-05-11T02:46:57.106Z,93838.78
2023-05-11T02:49:25.784Z,93846.63
2023-05-11T02:51:53.889Z,93841.94
2023-05-11T02:54:20.908Z,93844.66
2023-05-11T02:56:52.775Z,93842.97
2023-05-11T02:59:20.271Z,93857.00
2023-05-11T03:01:47.848Z,93841.09
2023-05-11T03:04:15.115Z,93848.94
2023-05-11T03:06:42.101Z,93848.19
2023-05-11T03:09:10.416Z,93838.34
2023-05-11T03:11:42.775Z,93844.03
2023-05-11T03:14:11.920Z,93834.75
2023-05-11T03:16:39.485Z,93835.59
2023-05-11T03:19:07.668Z,93833.72
2023-05-11T03:21:34.872Z,93840.06
2023-05-11T03:24:02.094Z,93846.16
2023-05-11T03:26:33.772Z,93838.16
2023-05-11T03:29:01.356Z,93845.97
2023-05-11T03:31:29.888Z,93845.47
2023-05-11T03:33:58.950Z,93839.78
2023-05-11T03:36:27.031Z,93844.91
2023-05-11T03:38:56.697Z,93843.16
2023-05-11T03:41:26.049Z,93847.47
2023-05-11T03:43:55.497Z,93846.53
2023-05-11T03:46:23.966Z,93843.16
2023-05-11T03:48:53.020Z,93849.09
2023-05-11T03:51:23.968Z,93858.22
2023-05-11T03:53:50.858Z,93850.03
2023-05-11T03:56:17.991Z,93854.72
2023-05-11T03:58:44.934Z,93856.47
2023-05-11T04:01:13.119Z,93862.97
2023-05-11T04:03:48.685Z,93860.53
2023-05-11T04:06:17.533Z,93860.16
2023-05-11T04:08:45.893Z,93860.44
2023-05-11T04:11:12.847Z,93871.38
2023-05-11T04:13:39.891Z,93879.19
2023-05-11T04:16:07.914Z,93873.75
2023-05-11T04:18:34.997Z,93875.50
2023-05-11T04:21:01.945Z,93883.63
2023-05-11T04:23:30.279Z,93875.44
2023-05-11T04:25:58.913Z,93889.72
2023-05-11T04:28:27.970Z,93886.72
2023-05-11T04:30:55.523Z,93887.38
2023-05-11T04:33:23.057Z,93890.31
2023-05-11T04:35:51.258Z,93887.25
2023-05-11T04:38:18.214Z,93888.88
2023-05-11T04:40:47.963Z,93889.94
2023-05-11T04:43:16.049Z,93898.13
2023-05-11T04:45:47.721Z,93893.56
2023-05-11T04:48:17.392Z,93890.19
2023-05-11T04:50:46.736Z,93892.03
2023-05-11T04:53:14.699Z,93893.66
2023-05-11T04:55:41.702Z,93891.94
2023-05-11T04:58:10.806Z,93898.81
2023-05-11T05:00:38.052Z,93896.13
2023-05-11T05:03:04.982Z,93904.19
2023-05-11T05:05:32.853Z,93906.38
2023-05-11T05:07:59.855Z,93905.41
2023-05-11T05:10:26.802Z,93910.94
2023-05-11T05:12:53.815Z,93899.63
2023-05-11T05:15:22.252Z,93916.19
2023-05-11T05:17:49.256Z,93917.00
2023-05-11T05:20:16.996Z,93911.63
2023-05-11T05:22:44.087Z,93915.75
2023-05-11T05:25:12.086Z,93925.19
2023-05-11T05:27:39.067Z,93914.38
2023-05-11T05:30:09.643Z,93925.56
2023-05-11T05:32:38.094Z,93929.44
2023-05-11T05:35:06.069Z,93936.19
2023-05-11T05:37:32.984Z,93929.56
2023-05-11T05:40:00.367Z,93933.28
2023-05-11T05:42:27.394Z,93936.91
2023-05-11T05:44:54.328Z,93930.59
2023-05-11T05:47:22.353Z,93930.91
2023-05-11T05:49:50.705Z,93928.28
2023-05-11T05:52:17.683Z,93925.22
2023-05-11T05:54:47.127Z,93933.09
2023-05-11T05:57:15.775Z,93933.38
2023-05-11T05:59:44.242Z,93931.78
2023-05-11T06:02:13.522Z,93946.84
2023-05-11T06:04:42.066Z,93935.97
2023-05-11T06:07:10.848Z,93936.81
2023-05-11T06:09:39.126Z,93936.38
2023-05-11T06:12:07.264Z,93932.47
2023-05-11T06:14:36.761Z,93939.53
2023-05-11T06:17:03.714Z,93944.94
2023-05-11T06:19:30.773Z,93945.22
2023-05-11T06:21:58.403Z,93961.13
2023-05-11T06:24:26.989Z,93951.81
2023-05-11T06:26:55.148Z,93952.47
2023-05-11T06:29:22.445Z,93958.66
2023-05-11T06:31:52.960Z,93958.22
2023-05-11T06:34:20.829Z,93952.22
2023-05-11T06:36:48.068Z,93951.78
2023-05-11T06:39:15.148Z,93955.44
2023-05-11T06:41:43.524Z,93958.34
2023-05-11T06:44:10.554Z,93958.28
2023-05-11T06:46:38.400Z,93965.91
2023-05-11T06:49:05.381Z,93962.75
2023-05-11T06:51:32.299Z,93959.38
2023-05-11T06:53:59.688Z,93961.13
2023-05-11T06:56:27.793Z,93954.81
2023-05-11T06:58:56.382Z,93961.22
2023-05-11T07:01:23.465Z,93970.09
2023-05-11T07:03:52.580Z,93965.81
2023-05-11T07:06:21.444Z,93966.97
2023-05-11T07:08:48.447Z,93965.00
2023-05-11T07:11:15.863Z,93963.13
2023-05-11T07:13:42.796Z,93965.06
2023-05-11T07:16:11.076Z,93971.41
2023-05-11T07:18:38.239Z,93967.19
2023-05-11T07:21:05.683Z,93971.75
2023-05-11T07:23:32.627Z,93969.63
2023-05-11T07:25:59.640Z,93972.31
2023-05-11T07:28:26.509Z,93968.00
2023-05-11T07:30:53.418Z,93972.38
2023-05-11T07:33:21.893Z,93969.63
2023-05-11T07:35:48.806Z,93954.38
2023-05-11T07:38:15.741Z,93965.28
2023-05-11T07:40:42.671Z,93971.09
2023-05-11T07:43:09.878Z,93962.28
2023-05-11T07:45:37.243Z,93966.13
2023-05-11T07:48:04.220Z,93961.31
2023-05-11T07:50:32.596Z,93970.81
2023-05-11T07:52:59.508Z,93969.22
2023-05-11T07:55:26.495Z,93970.03
2023-05-11T07:57:54.345Z,93967.13
2023-05-11T08:00:21.994Z,93967.59
2023-05-11T08:02:48.987Z,93980.16
2023-05-11T08:05:17.084Z,93977.91
2023-05-11T08:07:45.676Z,93981.25
2023-05-11T08:10:12.934Z,93983.63
2023-05-11T08:12:39.872Z,93971.59
2023-05-11T08:15:07.627Z,93986.06
2023-05-11T08:17:34.742Z,93975.44
2023-05-11T08:20:01.911Z,93977.06
2023-05-11T08:22:28.916Z,93987.25
2023-05-11T08:24:57.242Z,93976.44
2023-05-11T08:27:24.235Z,93977.41
2023-05-11T08:29:51.416Z,93976.44
2023-05-11T08:32:18.373Z,93977.25
2023-05-11T08:34:45.543Z,93983.16
2023-05-11T08:37:12.645Z,93986.00
2023-05-11T08:39:47.180Z,93978.38
2023-05-11T08:42:16.033Z,93973.56
2023-05-11T08:44:44.339Z,93964.19
2023-05-11T08:47:22.505Z,93974.63
2023-05-11T08:49:51.201Z,93965.25
2023-05-11T08:52:18.770Z,93976.13
2023-05-11T08:54:46.130Z,93972.19
2023-05-11T08:57:15.185Z,93970.28
2023-05-11T08:59:42.615Z,93961.66
2023-05-11T09:02:11.424Z,93965.31
2023-05-11T09:04:38.581Z,93957.25
2023-05-11T09:07:05.621Z,93967.94
2023-05-11T09:09:32.790Z,93945.78
2023-05-11T09:11:59.889Z,93950.59
2023-05-11T09:14:29.743Z,93947.19
2023-05-11T09:16:58.868Z,93951.16
2023-05-11T09:19:27.022Z,93961.84
2023-05-11T09:21:53.996Z,93963.78
2023-05-11T09:24:21.226Z,93957.69
2023-05-11T09:26:48.513Z,93955.50
2023-05-11T09:29:19.627Z,93961.41
2023-05-11T09:31:48.082Z,93952.69
2023-05-11T09:34:16.779Z,93957.00
2023-05-11T09:36:44.486Z,93956.88
2023-05-11T09:41:42.272Z,93957.00
2023-05-11T09:44:12.386Z,93956.84
2023-05-11T09:46:40.229Z,93957.59
2023-05-11T09:49:08.885Z,93954.44
2023-05-11T09:51:37.157Z,93948.28
2023-05-11T09:54:16.359Z,93953.38
2023-05-11T09:56:46.359Z,93951.63
2023-05-11T09:59:15.470Z,93950.94
2023-05-11T10:01:42.511Z,93944.06
2023-05-11T10:04:22.185Z,93943.16
2023-05-11T10:06:53.574Z,93943.66
2023-05-11T10:09:24.657Z,93947.09
2023-05-11T10:11:53.725Z,93942.59
2023-05-11T10:14:21.939Z,93938.47
2023-05-11T10:16:49.108Z,93928.34
2023-05-11T10:19:17.600Z,93933.53
2023-05-11T10:21:45.083Z,93933.22
2023-05-11T10:24:13.866Z,93931.66
2023-05-11T10:26:41.069Z,93929.72
2023-05-11T10:29:08.156Z,93924.94
2023-05-11T10:31:35.598Z,93924.41
2023-05-11T10:34:04.186Z,93929.59
2023-05-11T10:36:33.241Z,93921.88
2023-05-11T10:39:00.165Z,93916.59
2023-05-11T10:41:40.132Z,93914.16
2023-05-11T10:44:25.680Z,93919.56
2023-05-11T10:47:04.400Z,93923.44
2023-05-11T10:49:54.740Z,93926.50
2023-05-11T10:52:39.193Z,93925.06
2023-05-11T10:55:10.315Z,93921.75
2023-05-11T10:57:51.701Z,93917.19
2023-05-11T11:01:06.265Z,93920.34
2023-05-11T11:03:33.393Z,93915.38
2023-05-11T11:06:01.109Z,93907.88
2023-05-11T11:08:29.927Z,93901.03
2023-05-11T11:10:56.930Z,93921.63
2023-05-11T11:13:24.518Z,93913.06
2023-05-11T11:16:16.166Z,93914.22
2023-05-11T11:18:43.718Z,93908.97
2023-05-11T11:21:15.657Z,93902.06
2023-05-11T11:23:50.054Z,93905.28
2023-05-11T11:26:38.611Z,93906.38
2023-05-11T11:29:08.913Z,93913.09
2023-05-11T11:31:36.757Z,93902.94
2023-05-11T11:34:32.400Z,93903.63
2023-05-11T11:37:08.665Z,93908.00
2023-05-11T11:40:08.963Z,93909.34
2023-05-11T11:42:44.285Z,93900.34
2023-05-11T11:45:38.950Z,93909.53
2023-05-11T11:48:16.267Z,93910.81
2023-05-11T11:50:48.024Z,93906.59
2023-05-11T11:53:48.175Z,93911.03
2023-05-11T11:56:44.894Z,93914.63
2023-05-11T11:59:14.076Z,93910.66
2023-05-11T12:01:43.243Z,93910.88
2023-05-11T12:04:44.863Z,93908.09
2023-05-11T12:07:13.333Z,93900.41
2023-05-11T12:09:41.214Z,93914.41
2023-05-11T12:12:10.449Z,93903.72
2023-05-11T12:14:39.393Z,93899.53
2023-05-11T12:17:15.503Z,93900.16
2023-05-11T12:19:43.883Z,93903.69
2023-05-11T12:22:13.943Z,93892.09
2023-05-11T12:24:41.462Z,93893.22
2023-05-11T12:27:09.908Z,93898.56
2023-05-11T12:29:36.642Z,93881.81
2023-05-11T12:32:03.990Z,93883.41
2023-05-11T12:34:31.006Z,93895.00
2023-05-11T12:37:00.484Z,93887.28
2023-05-11T12:39:28.152Z,93879.75
2023-05-11T12:41:56.431Z,93880.38
2023-05-11T12:44:25.230Z,93865.88
2023-05-11T12:46:52.732Z,93877.16
2023-05-11T12:51:52.592Z,93868.16
2023-05-11T12:54:27.585Z,93868.63
2023-05-11T12:56:55.019Z,93857.50
2023-05-11T12:59:31.737Z,93854.34
2023-05-11T13:02:13.586Z,93864.13
2023-05-11T13:04:42.540Z,93852.88
2023-05-11T13:07:10.162Z,93841.91
2023-05-11T13:09:37.281Z,93848.97
2023-05-11T13:12:11.372Z,93845.94
2023-05-11T13:14:39.907Z,93840.25
2023-05-11T13:17:06.642Z,93844.00
2023-05-11T13:19:33.957Z,93842.53
2023-05-11T13:22:01.062Z,93841.88
2023-05-11T13:24:28.307Z,93847.84
2023-05-11T13:26:56.404Z,93835.28
2023-05-11T13:29:23.464Z,93838.38
2023-05-11T13:31:52.794Z,93833.06
2023-05-11T13:34:20.447Z,93840.16
2023-05-11T13:36:47.535Z,93833.41
2023-05-11T13:39:14.404Z,93824.72
2023-05-11T13:41:41.356Z,93850.16
2023-05-11T13:44:08.333Z,93828.88
2023-05-11T13:46:35.624Z,93848.34
2023-05-11T13:49:04.782Z,93843.06
2023-05-11T13:51:32.297Z,93833.59
2023-05-11T13:54:01.023Z,93836.44
2023-05-11T13:56:28.272Z,93831.13
2023-05-11T13:58:56.669Z,93838.69
2023-05-11T14:01:25.214Z,93835.00
2023-05-11T14:03:56.754Z,93837.09
2023-05-11T14:06:25.697Z,93824.72
2023-05-11T14:08:53.548Z,93838.88
2023-05-11T14:11:21.511Z,93832.44
2023-05-11T14:13:49.090Z,93831.94
2023-05-11T14:16:16.067Z,93827.59
2023-05-11T14:18:43.259Z,93828.72
2023-05-11T14:21:10.903Z,93825.69
2023-05-11T14:23:43.159Z,93823.75
2023-05-11T14:26:14.421Z,93845.94
2023-05-11T14:28:41.478Z,93833.09
2023-05-11T14:31:08.827Z,93834.38
2023-05-11T14:33:35.843Z,93831.00
2023-05-11T14:36:03.732Z,93831.63
2023-05-11T14:38:31.823Z,93826.47
2023-05-11T14:41:02.050Z,93831.28
2023-05-11T14:43:28.949Z,93816.34
2023-05-11T14:45:56.061Z,93831.16
2023-05-11T14:48:23.198Z,93835.81
2023-05-11T14:50:50.212Z,93840.78
2023-05-11T14:53:17.162Z,93842.09
2023-05-11T14:55:44.112Z,93831.47
2023-05-11T14:58:12.390Z,93838.84
2023-05-11T15:00:40.416Z,93842.38
2023-05-11T15:03:07.939Z,93829.66
2023-05-11T15:05:35.009Z,93831.75
2023-05-11T15:08:01.958Z,93827.09
2023-05-11T15:10:28.928Z,93828.25
2023-05-11T15:12:55.944Z,93834.00
2023-05-11T15:15:24.728Z,93828.09
2023-05-11T15:17:51.723Z,93830.47
2023-05-11T15:20:18.853Z,93830.00
2023-05-11T15:22:45.884Z,93829.38
2023-05-11T15:25:12.977Z,93825.19
2023-05-11T15:27:39.999Z,93825.19
2023-05-11T15:30:08.104Z,93824.69
2023-05-11T15:32:36.680Z,93838.03
2023-05-11T15:35:04.157Z,93831.44
2023-05-11T15:37:31.160Z,93823.38
2023-05-11T15:39:58.242Z,93829.81
2023-05-11T15:42:25.172Z,93827.56
2023-05-11T15:44:52.182Z,93831.75
2023-05-11T15:47:19.138Z,93832.44
2023-05-11T15:49:47.396Z,93834.00
2023-05-11T15:52:14.315Z,93841.72
2023-05-11T15:54:41.211Z,93848.66
2023-05-11T15:57:08.384Z,93835.63
2023-05-11T15:59:35.292Z,93835.00
2023-05-11T16:02:02.233Z,93836.09
2023-05-11T16:04:29.177Z,93853.63
2023-05-11T16:06:58.868Z,93842.06
2023-05-11T16:09:26.104Z,93829.34
2023-05-11T16:11:52.997Z,93841.09
2023-05-11T16:14:19.887Z,93830.81
2023-05-11T16:16:46.826Z,93837.88
2023-05-11T16:19:13.819Z,93840.75
2023-05-11T16:21:40.775Z,93834.81
2023-05-11T16:24:09.272Z,93837.38
2023-05-11T16:26:36.048Z,93839.81
2023-05-11T16:29:03.048Z,93834.81
2023-05-11T16:31:30.070Z,93834.97
2023-05-11T16:33:57.221Z,93836.09
2023-05-11T16:36:24.072Z,93839.28
2023-05-11T16:38:51.020Z,93831.44
2023-05-11T16:41:19.369Z,93848.63
2023-05-11T16:43:46.438Z,93839.00
2023-05-11T16:46:13.643Z,93851.06
2023-05-11T16:48:40.707Z,93837.88
2023-05-11T16:51:07.581Z,93845.91
2023-05-11T16:53:34.526Z,93847.66
2023-05-11T16:56:01.591Z,93851.69
2023-05-11T16:58:31.066Z,93856.34
2023-05-11T17:00:59.359Z,93850.25
2023-05-11T17:03:27.001Z,93846.88
2023-05-11T17:05:54.030Z,93837.53
2023-05-11T17:08:21.113Z,93853.44
2023-05-11T17:10:48.035Z,93849.09
2023-05-11T17:13:15.047Z,93861.81
2023-05-11T17:15:43.452Z,93862.09
2023-05-11T17:18:10.392Z,93850.25
2023-05-11T17:20:37.520Z,93851.81
2023-05-11T17:23:04.792Z,93846.53
2023-05-11T17:25:31.833Z,93856.00
2023-05-11T17:27:58.799Z,93853.09
2023-05-11T17:30:36.390Z,93849.09
2023-05-11T17:33:14.843Z,93855.38
2023-05-11T17:35:41.980Z,93857.63
2023-05-11T17:38:08.895Z,93861.00
2023-05-11T17:40:36.114Z,93855.19
2023-05-11T17:43:03.098Z,93858.28
2023-05-11T17:45:30.071Z,93869.34
2023-05-11T17:47:57.341Z,93855.38
2023-05-11T17:50:25.774Z,93858.75
2023-05-11T17:52:53.229Z,93844.16
2023-05-11T17:55:20.366Z,93847.53
2023-05-11T17:57:48.388Z,93854.56
2023-05-11T18:00:16.259Z,93853.63
2023-05-11T18:02:43.287Z,93853.78
2023-05-11T18:05:10.287Z,93853.63
2023-05-11T18:07:38.580Z,93861.34
2023-05-11T18:10:06.567Z,93854.91
2023-05-11T18:12:33.558Z,93858.28
2023-05-11T18:15:00.652Z,93857.16
2023-05-11T18:17:27.662Z,93863.44
2023-05-11T18:19:54.544Z,93855.88
2023-05-11T18:22:22.906Z,93857.34
2023-05-11T18:24:51.309Z,93874.38
2023-05-11T18:27:18.590Z,93865.84
2023-05-11T18:29:45.577Z,93866.00
2023-05-11T18:32:12.546Z,93868.25
2023-05-11T18:34:42.550Z,93868.91
2023-05-11T18:37:09.755Z,93873.25
2023-05-11T18:39:36.669Z,93875.97
2023-05-11T18:42:06.365Z,93876.44
2023-05-11T18:44:34.546Z,93881.44
2023-05-11T18:47:01.740Z,93880.63
2023-05-11T18:49:28.866Z,93875.34
2023-05-11T18:51:55.828Z,93877.25
2023-05-11T18:54:22.746Z,93890.56
2023-05-11T18:56:49.744Z,93883.00
2023-05-11T18:59:18.356Z,93887.06
2023-05-11T19:01:47.967Z,93888.81
2023-05-11T19:04:19.717Z,93889.13
2023-05-11T19:06:47.016Z,93896.53
2023-05-11T19:09:14.134Z,93892.50
2023-05-11T19:11:41.699Z,93890.91
2023-05-11T19:14:10.387Z,93894.28
2023-05-11T19:16:39.182Z,93891.06
2023-05-11T19:19:06.283Z,93898.63
2023-05-11T19:21:35.460Z,93890.91
2023-05-11T19:24:02.392Z,93894.75
2023-05-11T19:26:29.600Z,93895.72
2023-05-11T19:28:56.578Z,93889.75
2023-05-11T19:31:25.307Z,93889.41
2023-05-11T19:33:53.733Z,93911.59
2023-05-11T19:36:20.645Z,93901.47
2023-05-11T19:38:47.585Z,93891.84
2023-05-11T19:41:14.515Z,93896.94
2023-05-11T19:43:41.460Z,93887.94
2023-05-11T19:46:08.635Z,93889.88
2023-05-11T19:48:36.123Z,93900.97
2023-05-11T19:51:04.433Z,93887.13
2023-05-11T19:53:31.385Z,93890.69
2023-05-11T19:55:58.443Z,93894.38
2023-05-11T19:58:25.541Z,93897.75
2023-05-11T20:00:52.537Z,93894.41
2023-05-11T20:03:19.619Z,93901.94
2023-05-11T20:05:46.754Z,93894.56
2023-05-11T20:08:15.186Z,93901.94
2023-05-11T20:10:41.941Z,93906.75
2023-05-11T20:13:08.889Z,93904.03
2023-05-11T20:15:36.115Z,93900.97
2023-05-11T20:18:03.357Z,93900.78
2023-05-11T20:20:30.834Z,93904.31
2023-05-11T20:22:58.211Z,93903.34
2023-05-11T20:25:26.820Z,93904.81
2023-05-11T20:27:53.702Z,93912.97
2023-05-11T20:30:20.913Z,93912.03
2023-05-11T20:35:18.333Z,93910.84
2023-05-11T20:37:45.338Z,93911.16
2023-05-11T20:40:13.260Z,93906.97
2023-05-11T20:42:41.984Z,93915.50
2023-05-11T20:45:09.923Z,93905.38
2023-05-11T20:47:37.157Z,93906.66
2023-05-11T20:50:05.046Z,93909.06
2023-05-11T20:52:32.064Z,93912.72
2023-05-11T20:54:58.963Z,93920.44
2023-05-11T20:57:25.968Z,93917.34
2023-05-11T21:02:24.257Z,93920.03
2023-05-11T21:04:51.158Z,93928.81
2023-05-11T21:07:18.277Z,93920.63
2023-05-11T21:09:45.330Z,93920.13
2023-05-11T21:12:12.285Z,93923.66
2023-05-11T21:14:39.216Z,93924.91
2023-05-11T21:17:07.571Z,93918.63
2023-05-11T21:19:34.533Z,93927.59
2023-05-11T21:22:01.451Z,93919.88
2023-05-11T21:24:28.567Z,93925.97
2023-05-11T21:26:55.852Z,93922.44
2023-05-11T21:29:22.811Z,93930.59
2023-05-11T21:31:49.836Z,93927.69
2023-05-11T21:34:18.234Z,93921.88
2023-05-11T21:36:45.695Z,93924.09
2023-05-11T21:39:15.624Z,93924.53
2023-05-11T21:41:42.608Z,93920.00
2023-05-11T21:44:09.567Z,93925.44
2023-05-11T21:46:36.468Z,93930.22
2023-05-11T21:49:03.614Z,93937.53
2023-05-11T21:51:33.032Z,93932.84
2023-05-11T21:54:00.448Z,93924.66
2023-05-11T21:56:27.345Z,93928.47
2023-05-11T21:58:54.252Z,93928.03
2023-05-11T22:01:21.586Z,93920.91
2023-05-11T22:03:48.678Z,93923.47
2023-05-11T22:06:15.908Z,93929.25
2023-05-11T22:08:44.748Z,93928.16
2023-05-11T22:11:11.676Z,93919.00
2023-05-11T22:13:38.787Z,93925.25
2023-05-11T22:16:06.476Z,93914.03
2023-05-11T22:18:33.518Z,93915.56
2023-05-11T22:21:00.401Z,93915.88
2023-05-11T22:23:27.315Z,93913.44
2023-05-11T22:25:55.754Z,93905.69
2023-05-11T22:28:23.096Z,93910.72
2023-05-11T22:30:50.014Z,93917.91
2023-05-11T22:33:16.945Z,93910.34
2023-05-11T22:35:44.028Z,93910.00
2023-05-11T22:38:11.364Z,93920.25
2023-05-11T22:40:38.322Z,93923.91
2023-05-11T22:43:06.600Z,93908.22
2023-05-11T22:45:33.561Z,93902.88
2023-05-11T22:48:00.611Z,93913.66
2023-05-11T22:50:28.093Z,93909.63
2023-05-11T22:52:55.247Z,93903.41
2023-05-11T22:55:22.941Z,93903.78
2023-05-11T22:57:49.965Z,93913.66
2023-05-11T23:00:19.273Z,93904.78
2023-05-11T23:02:46.542Z,93903.25
2023-05-11T23:05:13.789Z,93908.09
2023-05-11T23:07:40.752Z,93903.78
2023-05-11T23:10:08.164Z,93911.31
2023-05-11T23:12:35.137Z,93902.81
2023-05-11T23:15:02.146Z,93906.63
2023-05-11T23:17:30.587Z,93905.22
2023-05-11T23:19:57.522Z,93904.06
2023-05-11T23:22:24.561Z,93901.94
2023-05-11T23:24:52.010Z,93900.03
2023-05-11T23:27:18.978Z,93902.88
2023-05-11T23:29:45.931Z,93907.22
2023-05-11T23:32:12.843Z,93900.97
2023-05-11T23:34:41.208Z,93894.91
2023-05-11T23:37:08.714Z,93899.97
2023-05-11T23:39:35.609Z,93902.53
2023-05-11T23:42:04.264Z,93899.59
2023-05-11T23:44:31.589Z,93901.72
2023-05-11T23:46:58.559Z,93894.16
2023-05-11T23:49:26.022Z,93902.59
2023-05-11T23:51:54.770Z,93904.47
2023-05-11T23:54:21.728Z,93891.59
2023-05-11T23:56:48.667Z,93894.00
2023-05-11T23:59:15.584Z,93897.72
